Time;durP1;ratioP1;P1;durP2;ratioP2;P2;SDS_P1;SDS_P2;PMS_P1;PMS_P2;Temp;Humidity;BMP_temperature;BMP_pressure;BME280_temperature;BME280_humidity;BME280_pressure;Samples;Min_cycle;Max_cycle;Signal;HPM_P1;HPM_P2
2022/01/26 00:06:43;;;;;;;75.70;31.20;;;5.20;99.90;;;;;;5010385;28;20596;-78
2022/01/26 00:09:10;;;;;;;76.70;31.17;;;5.20;99.90;;;;;;5011379;28;20191;-79
2022/01/26 00:11:37;;;;;;;78.00;32.77;;;5.20;99.90;;;;;;4992644;28;20191;-79
2022/01/26 00:14:12;;;;;;;76.80;32.23;;;5.20;99.90;;;;;;5004088;28;20760;-78
2022/01/26 00:16:41;;;;;;;77.23;32.40;;;5.20;99.90;;;;;;4993735;28;20595;-79
2022/01/26 00:19:19;;;;;;;77.47;31.93;;;5.20;99.90;;;;;;4987466;28;20188;-78
2022/01/26 00:29:22;;;;;;;101.80;39.23;;;5.30;99.90;;;;;;5010615;28;20190;-78
2022/01/26 00:43:00;;;;;;;94.47;37.90;;;5.40;99.90;;;;;;5008353;28;20338;-79
2022/01/26 00:45:33;;;;;;;91.40;37.00;;;5.30;99.90;;;;;;4983663;28;20207;-79
2022/01/26 00:48:03;;;;;;;95.47;37.90;;;5.30;99.90;;;;;;5002270;28;20194;-80
2022/01/26 00:50:29;;;;;;;97.50;39.07;;;5.30;99.90;;;;;;5008180;28;20235;-79
2022/01/26 00:52:55;;;;;;;91.87;36.53;;;5.30;99.90;;;;;;5007900;28;20205;-77
2022/01/26 00:55:21;;;;;;;89.93;37.57;;;5.30;99.90;;;;;;5008928;28;20192;-78
2022/01/26 00:57:47;;;;;;;95.37;37.87;;;5.30;99.90;;;;;;4986977;28;20208;-77
2022/01/26 01:00:17;;;;;;;97.30;38.83;;;5.30;99.90;;;;;;5007431;28;20243;-79
2022/01/26 01:02:43;;;;;;;89.70;36.73;;;5.40;99.90;;;;;;5008142;28;20180;-78
2022/01/26 01:05:18;;;;;;;84.33;34.27;;;5.40;99.90;;;;;;5009306;28;20606;-79
2022/01/26 01:07:45;;;;;;;88.53;34.43;;;5.30;99.90;;;;;;4993212;28;20239;-78
2022/01/26 01:10:12;;;;;;;78.83;33.27;;;5.20;99.90;;;;;;4990629;28;20183;-79
2022/01/26 01:12:42;;;;;;;89.13;35.93;;;5.20;99.90;;;;;;4991888;28;20222;-78
2022/01/26 01:15:11;;;;;;;80.60;33.87;;;5.20;99.90;;;;;;4991304;28;20278;-78
2022/01/26 01:17:42;;;;;;;89.43;35.40;;;5.10;99.90;;;;;;5008457;28;20286;-79
2022/01/26 01:28:32;;;;;;;95.57;37.07;;;5.10;99.90;;;;;;5007965;28;20207;-79
2022/01/26 01:31:07;;;;;;;94.20;36.53;;;5.10;99.90;;;;;;4976341;28;20584;-79
2022/01/26 01:33:38;;;;;;;96.90;38.37;;;5.10;99.90;;;;;;5006294;28;20213;-78
2022/01/26 01:36:05;;;;;;;94.07;36.67;;;5.00;99.90;;;;;;4976304;28;20191;-80
2022/01/26 01:38:32;;;;;;;99.37;36.77;;;5.00;99.90;;;;;;4987405;28;20226;-79
2022/01/26 01:40:58;;;;;;;92.67;35.13;;;5.00;99.90;;;;;;5008251;28;20298;-79
2022/01/26 01:43:24;;;;;;;98.23;38.37;;;5.10;99.90;;;;;;5008515;28;20276;-77
2022/01/26 01:45:52;;;;;;;91.43;36.27;;;5.00;99.90;;;;;;4986263;28;20708;-78
2022/01/26 01:48:23;;;;;;;97.87;38.07;;;4.90;99.90;;;;;;5002364;28;20179;-79
2022/01/26 01:50:51;;;;;;;102.93;39.53;;;4.90;99.90;;;;;;5009138;28;20262;-80
2022/01/26 01:53:18;;;;;;;96.57;37.23;;;4.90;99.90;;;;;;5023241;28;20187;-79
2022/01/26 01:55:49;;;;;;;94.33;36.40;;;4.90;99.90;;;;;;5007553;28;20195;-79
2022/01/26 01:58:16;;;;;;;100.43;36.50;;;4.90;99.90;;;;;;5008110;28;20205;-79
2022/01/26 02:00:43;;;;;;;98.73;37.60;;;4.80;99.90;;;;;;5006206;28;20205;-78
2022/01/26 02:03:09;;;;;;;103.03;39.20;;;4.80;99.90;;;;;;5009363;28;20199;-77
2022/01/26 02:05:34;;;;;;;97.17;35.13;;;4.70;99.90;;;;;;5008098;28;20592;-79
2022/01/26 02:08:00;;;;;;;94.90;36.67;;;4.60;99.90;;;;;;4985936;28;20195;-79
2022/01/26 02:10:28;;;;;;;102.70;37.20;;;4.60;99.90;;;;;;4989509;28;20188;-79
2022/01/26 02:13:00;;;;;;;106.20;38.13;;;4.60;99.90;;;;;;4986736;28;20755;-79
2022/01/26 02:15:34;;;;;;;107.63;37.30;;;4.60;99.90;;;;;;5006617;28;20192;-79
2022/01/26 02:53:03;;;;;;;104.90;39.40;;;4.40;99.90;;;;;;5007901;28;20200;-79
2022/01/26 03:03:41;;;;;;;106.97;38.80;;;4.80;99.90;;;;;;5005938;28;20709;-79
2022/01/26 03:06:13;;;;;;;105.97;37.77;;;4.80;99.90;;;;;;4987116;28;20203;-79
2022/01/26 03:08:43;;;;;;;113.63;41.23;;;4.90;99.90;;;;;;4986348;28;20723;-79
2022/01/26 03:11:12;;;;;;;112.40;39.20;;;4.90;99.90;;;;;;4990698;28;20192;-79
2022/01/26 03:13:45;;;;;;;105.57;38.33;;;4.80;99.90;;;;;;4998626;28;20612;-78
2022/01/26 03:16:20;;;;;;;108.87;38.13;;;4.70;99.90;;;;;;4998188;28;20188;-78
2022/01/26 03:21:16;;;;;;;115.87;41.17;;;4.60;99.90;;;;;;4991934;28;20217;-78
2022/01/26 03:29:14;;;;;;;115.87;40.70;;;4.50;99.90;;;;;;4993778;28;20198;-80
2022/01/26 03:34:14;;;;;;;111.17;39.43;;;4.40;99.90;;;;;;5006675;28;20187;-79
2022/01/26 03:36:54;;;;;;;111.80;38.87;;;4.50;99.90;;;;;;5005631;28;20195;-79
2022/01/26 03:39:23;;;;;;;114.90;39.97;;;4.50;99.90;;;;;;5004149;28;20540;-80
2022/01/26 03:41:56;;;;;;;112.67;40.93;;;4.60;99.90;;;;;;4989275;28;20262;-79
2022/01/26 03:44:22;;;;;;;108.23;39.13;;;4.70;99.90;;;;;;4990256;28;20183;-79
2022/01/26 03:46:49;;;;;;;110.03;39.87;;;4.80;99.90;;;;;;5004826;28;20210;-79
2022/01/26 03:49:16;;;;;;;111.33;38.33;;;4.80;99.90;;;;;;5003567;28;20271;-79
2022/01/26 03:51:42;;;;;;;114.53;39.77;;;4.90;99.90;;;;;;5005560;28;20742;-79
2022/01/26 03:54:09;;;;;;;104.23;36.83;;;4.90;99.90;;;;;;4980127;28;20684;-79
2022/01/26 03:56:36;;;;;;;114.87;40.63;;;4.90;99.90;;;;;;4986688;28;20196;-79
2022/01/26 03:59:03;;;;;;;107.17;41.37;;;4.90;99.90;;;;;;4998823;28;20207;-79
2022/01/26 04:01:28;;;;;;;112.23;40.10;;;5.00;99.90;;;;;;4984945;28;20188;-79
2022/01/26 04:03:54;;;;;;;99.30;39.00;;;5.00;99.90;;;;;;4971549;28;20200;-78
2022/01/26 04:06:20;;;;;;;112.70;39.57;;;5.00;99.90;;;;;;4987612;28;20267;-79
2022/01/26 04:08:46;;;;;;;100.57;38.63;;;4.90;99.90;;;;;;5006094;28;20706;-80
2022/01/26 04:13:39;;;;;;;117.47;39.73;;;4.90;99.90;;;;;;5008184;28;20219;-79
2022/01/26 04:16:07;;;;;;;115.40;40.23;;;4.80;99.90;;;;;;5007711;28;20201;-79
2022/01/26 04:18:36;;;;;;;112.00;40.03;;;4.90;99.90;;;;;;5022752;28;20191;-78
2022/01/26 04:21:11;;;;;;;114.13;40.07;;;4.90;99.90;;;;;;4992420;28;20191;-79
2022/01/26 04:26:05;;;;;;;119.00;41.27;;;4.90;99.90;;;;;;5007554;28;20682;-78
2022/01/26 04:28:42;;;;;;;112.90;40.27;;;5.00;99.90;;;;;;5007340;28;20832;-78
2022/01/26 04:31:11;;;;;;;105.83;38.77;;;5.00;99.90;;;;;;5006882;28;20191;-78
2022/01/26 04:33:37;;;;;;;117.27;40.20;;;4.90;99.90;;;;;;5007972;28;20195;-79
2022/01/26 04:36:07;;;;;;;103.37;37.67;;;4.90;99.90;;;;;;5009076;28;20194;-79
2022/01/26 04:38:39;;;;;;;112.07;38.93;;;4.90;99.90;;;;;;5007343;28;20202;-79
2022/01/26 04:43:35;;;;;;;114.13;39.40;;;4.90;99.90;;;;;;5009077;28;20219;-78
2022/01/26 04:46:01;;;;;;;116.17;39.63;;;4.90;99.90;;;;;;5007356;28;20209;-78
2022/01/26 04:48:26;;;;;;;111.03;38.30;;;4.90;99.90;;;;;;5009093;28;20278;-79
2022/01/26 04:50:53;;;;;;;114.77;39.77;;;5.00;99.90;;;;;;4985653;28;20264;-79
2022/01/26 04:53:20;;;;;;;103.33;39.37;;;5.00;99.90;;;;;;5023814;28;20194;-78
2022/01/26 04:55:45;;;;;;;106.10;38.70;;;5.00;99.90;;;;;;5008249;28;20286;-79
2022/01/26 04:58:11;;;;;;;108.70;36.87;;;5.00;99.90;;;;;;5007576;28;20242;-79
2022/01/26 05:00:37;;;;;;;92.87;36.03;;;5.00;99.90;;;;;;4990274;28;20293;-78
2022/01/26 05:03:03;;;;;;;98.80;37.43;;;5.00;99.90;;;;;;5008206;28;20187;-78
2022/01/26 05:05:28;;;;;;;91.13;34.90;;;5.00;99.90;;;;;;5005684;28;20318;-78
2022/01/26 05:07:54;;;;;;;88.83;33.77;;;5.00;99.90;;;;;;4988749;28;20806;-79
2022/01/26 05:10:20;;;;;;;95.07;34.67;;;5.00;99.90;;;;;;4997979;28;20251;-79
2022/01/26 05:12:46;;;;;;;88.43;33.30;;;5.00;99.90;;;;;;5005984;28;20204;-79
2022/01/26 05:15:12;;;;;;;65.63;27.33;;;5.00;99.90;;;;;;4983359;28;20525;-80
2022/01/26 05:17:38;;;;;;;64.10;26.10;;;5.00;99.90;;;;;;4973806;28;20760;-79
2022/01/26 05:20:09;;;;;;;64.77;26.83;;;5.00;99.90;;;;;;5008275;28;20190;-79
2022/01/26 05:22:40;;;;;;;65.17;27.33;;;5.00;99.90;;;;;;5005601;28;20187;-78
2022/01/26 05:25:06;;;;;;;63.90;25.90;;;5.00;99.90;;;;;;5008509;28;20317;-79
2022/01/26 05:27:32;;;;;;;62.10;26.07;;;5.00;99.90;;;;;;5005658;28;20207;-79
2022/01/26 05:29:58;;;;;;;65.13;25.10;;;5.00;99.90;;;;;;4998806;28;20183;-78
2022/01/26 05:32:26;;;;;;;57.10;22.33;;;5.00;99.90;;;;;;4991030;28;20277;-80
2022/01/26 05:34:52;;;;;;;56.63;25.00;;;5.00;99.90;;;;;;4999160;28;20191;-78
2022/01/26 05:37:18;;;;;;;61.87;24.37;;;4.90;99.90;;;;;;4990004;28;20191;-79
2022/01/26 05:39:43;;;;;;;60.07;24.10;;;4.80;99.90;;;;;;4999374;28;20215;-79
2022/01/26 05:42:09;;;;;;;59.53;25.17;;;4.80;99.90;;;;;;5005165;28;20384;-78
2022/01/26 05:44:35;;;;;;;62.83;26.03;;;4.80;99.90;;;;;;5002249;28;20226;-79
2022/01/26 05:47:01;;;;;;;57.77;24.77;;;4.80;99.90;;;;;;5005745;28;20196;-78
2022/01/26 05:49:27;;;;;;;54.50;24.70;;;4.80;99.90;;;;;;4970126;28;20276;-78
2022/01/26 05:51:53;;;;;;;66.10;26.27;;;4.70;99.90;;;;;;4988381;28;20219;-77
2022/01/26 05:54:19;;;;;;;57.17;24.40;;;4.70;99.90;;;;;;5005469;28;20200;-78
2022/01/26 05:56:47;;;;;;;61.97;25.57;;;4.70;99.90;;;;;;5006395;28;20484;-79
2022/01/26 05:59:20;;;;;;;61.53;25.13;;;4.80;99.90;;;;;;5004948;28;20184;-80
2022/01/26 06:01:47;;;;;;;60.27;24.43;;;4.80;99.90;;;;;;5006248;28;20257;-79
2022/01/26 06:04:12;;;;;;;57.83;24.67;;;4.80;99.90;;;;;;5006820;28;20188;-78
2022/01/26 06:06:38;;;;;;;56.63;23.93;;;4.80;99.90;;;;;;4986520;28;20650;-79
2022/01/26 06:09:04;;;;;;;63.70;23.87;;;4.70;99.90;;;;;;4990031;28;20191;-79
2022/01/26 06:11:29;;;;;;;60.13;25.03;;;4.70;99.90;;;;;;4991068;28;20199;-79
2022/01/26 06:13:55;;;;;;;61.07;25.07;;;4.60;99.90;;;;;;5000339;28;20206;-79
2022/01/26 06:16:22;;;;;;;62.73;26.10;;;4.60;99.90;;;;;;5005681;28;20191;-79
2022/01/26 06:18:47;;;;;;;57.03;22.40;;;4.60;99.90;;;;;;5003410;28;20718;-78
2022/01/26 06:21:13;;;;;;;59.90;24.67;;;4.60;99.90;;;;;;5004431;28;20290;-80
2022/01/26 06:23:39;;;;;;;70.77;24.60;;;4.60;99.90;;;;;;5005821;28;20279;-79
2022/01/26 06:26:05;;;;;;;62.93;22.53;;;4.50;99.90;;;;;;4979884;28;20242;-78
2022/01/26 06:28:31;;;;;;;59.20;22.87;;;4.50;99.90;;;;;;4989296;28;20286;-80
2022/01/26 06:31:00;;;;;;;67.90;25.63;;;4.50;99.90;;;;;;5005896;28;20562;-79
2022/01/26 06:33:27;;;;;;;58.43;25.60;;;4.50;99.90;;;;;;4999083;28;20242;-79
2022/01/26 06:35:53;;;;;;;60.97;25.43;;;4.50;99.90;;;;;;5005576;28;20191;-80
2022/01/26 06:38:19;;;;;;;57.17;23.20;;;4.50;99.90;;;;;;5005117;28;20187;-80
2022/01/26 06:40:44;;;;;;;58.07;22.93;;;4.50;99.90;;;;;;4987307;28;20234;-80
2022/01/26 06:43:14;;;;;;;58.67;24.03;;;4.50;99.90;;;;;;4990878;28;20218;-79
2022/01/26 06:45:50;;;;;;;55.70;22.97;;;4.50;99.90;;;;;;5007196;28;20211;-79
2022/01/26 06:50:58;;;;;;;62.93;25.00;;;4.50;99.90;;;;;;5006669;28;20718;-79
2022/01/26 06:53:23;;;;;;;61.27;24.13;;;4.40;99.90;;;;;;5009137;28;20183;-78
2022/01/26 06:55:50;;;;;;;61.47;25.63;;;4.50;99.90;;;;;;4989368;28;20767;-79
2022/01/26 06:58:15;;;;;;;57.63;24.43;;;4.50;99.90;;;;;;4992123;28;20576;-80
2022/01/26 07:00:42;;;;;;;60.67;25.10;;;4.50;99.90;;;;;;4981178;28;20195;-80
2022/01/26 07:03:08;;;;;;;69.23;25.83;;;4.50;99.90;;;;;;4989370;28;20279;-80
2022/01/26 07:05:34;;;;;;;66.57;25.40;;;4.50;99.90;;;;;;4989919;28;20362;-79
2022/01/26 07:07:59;;;;;;;63.33;24.67;;;4.50;99.90;;;;;;4989196;28;20196;-78
2022/01/26 07:10:25;;;;;;;61.67;25.33;;;4.50;99.90;;;;;;4989806;28;20630;-80
2022/01/26 07:12:54;;;;;;;64.30;25.27;;;4.50;99.90;;;;;;4991247;28;20265;-77
2022/01/26 07:23:43;;;;;;;52.47;22.17;;;4.60;99.90;;;;;;4927515;29;20304;-79
2022/01/26 07:26:09;;;;;;;51.53;21.53;;;4.60;99.90;;;;;;4952593;28;20231;-79
2022/01/26 07:28:39;;;;;;;52.70;21.43;;;4.60;99.90;;;;;;5007680;28;20207;-79
2022/01/26 07:31:05;;;;;;;52.73;21.73;;;4.50;99.90;;;;;;5006289;28;20292;-80
2022/01/26 07:33:32;;;;;;;54.10;22.53;;;4.60;99.90;;;;;;5002318;28;20568;-79
2022/01/26 07:35:58;;;;;;;56.80;20.40;;;4.60;99.90;;;;;;5003022;28;20190;-79
2022/01/26 07:38:27;;;;;;;47.80;20.73;;;4.60;99.90;;;;;;4992317;28;20191;-78
2022/01/26 07:40:54;;;;;;;52.20;22.23;;;4.60;99.90;;;;;;4987145;28;20198;-77
2022/01/26 07:43:20;;;;;;;57.47;24.07;;;4.60;99.90;;;;;;4991224;28;20243;-79
2022/01/26 07:45:45;;;;;;;56.67;23.73;;;4.60;99.90;;;;;;4992004;28;20731;-78
2022/01/26 07:48:11;;;;;;;53.90;21.47;;;4.60;99.90;;;;;;5006414;28;20196;-79
2022/01/26 07:50:37;;;;;;;60.37;23.50;;;4.60;99.90;;;;;;4989254;28;20342;-78
2022/01/26 07:53:03;;;;;;;50.87;22.03;;;4.60;99.90;;;;;;4984858;28;20225;-80
2022/01/26 07:55:30;;;;;;;55.73;23.10;;;4.70;99.90;;;;;;5000088;28;20202;-78
2022/01/26 07:57:56;;;;;;;52.47;23.90;;;4.70;99.90;;;;;;4989730;28;20212;-77
2022/01/26 08:00:24;;;;;;;49.23;21.03;;;4.70;99.90;;;;;;4970810;28;20611;-79
2022/01/26 08:02:50;;;;;;;49.63;20.17;;;4.70;99.90;;;;;;5002128;28;20209;-78
2022/01/26 08:05:16;;;;;;;55.33;21.57;;;4.70;99.90;;;;;;5005804;28;20239;-77
2022/01/26 08:07:42;;;;;;;51.70;22.07;;;4.70;99.90;;;;;;5009343;28;20196;-78
2022/01/26 08:10:09;;;;;;;56.80;22.00;;;4.70;99.90;;;;;;5008124;28;20897;-78
2022/01/26 08:12:37;;;;;;;52.17;21.63;;;4.70;99.90;;;;;;4993592;28;20207;-79
2022/01/26 08:15:03;;;;;;;64.97;23.40;;;4.80;99.90;;;;;;5022186;28;20788;-78
2022/01/26 08:17:28;;;;;;;57.87;21.57;;;4.80;99.90;;;;;;5008149;28;20204;-78
2022/01/26 08:19:56;;;;;;;48.30;21.23;;;4.80;99.90;;;;;;4991878;28;20203;-79
2022/01/26 08:22:24;;;;;;;56.10;20.97;;;4.80;99.90;;;;;;5003516;28;20654;-77
2022/01/26 08:24:50;;;;;;;55.33;21.53;;;4.80;99.90;;;;;;5009599;28;20679;-78
2022/01/26 08:27:18;;;;;;;51.83;20.87;;;4.90;99.90;;;;;;5011020;28;20204;-78
2022/01/26 08:29:48;;;;;;;54.60;21.23;;;4.80;99.90;;;;;;4992340;28;20286;-79
2022/01/26 08:32:14;;;;;;;55.83;22.20;;;4.90;99.90;;;;;;5010065;28;20176;-78
2022/01/26 08:34:40;;;;;;;49.13;20.43;;;4.90;99.90;;;;;;5009356;28;20206;-79
2022/01/26 08:37:06;;;;;;;57.03;21.70;;;4.90;99.90;;;;;;4989057;28;20199;-78
2022/01/26 08:39:35;;;;;;;45.27;19.73;;;4.90;99.90;;;;;;5005741;28;20188;-78
2022/01/26 08:42:02;;;;;;;48.73;19.10;;;4.80;99.90;;;;;;4991384;28;20306;-79
2022/01/26 08:44:27;;;;;;;50.00;20.13;;;4.90;99.90;;;;;;5007519;28;20192;-80
2022/01/26 08:46:54;;;;;;;48.80;18.53;;;4.90;99.90;;;;;;4990610;28;20185;-78
2022/01/26 08:49:21;;;;;;;51.67;19.13;;;4.90;99.90;;;;;;5006590;28;20231;-78
2022/01/26 08:51:49;;;;;;;50.67;19.30;;;4.90;99.90;;;;;;5007303;28;20199;-79
2022/01/26 08:54:15;;;;;;;51.53;19.23;;;4.90;99.90;;;;;;5006238;28;20271;-79
2022/01/26 08:56:41;;;;;;;55.77;19.67;;;4.90;99.90;;;;;;5010641;28;20971;-79
2022/01/26 08:59:07;;;;;;;53.07;19.67;;;4.90;99.90;;;;;;5006993;28;20206;-79
2022/01/26 09:01:33;;;;;;;41.80;17.93;;;5.00;99.90;;;;;;5009963;28;20234;-78
2022/01/26 09:03:59;;;;;;;52.23;19.23;;;5.00;99.90;;;;;;4991690;28;20215;-79
2022/01/26 09:06:24;;;;;;;49.43;19.50;;;5.00;99.90;;;;;;5008624;28;20215;-79
2022/01/26 09:08:59;;;;;;;53.10;19.87;;;5.00;99.90;;;;;;4992647;28;20734;-80
2022/01/26 09:11:24;;;;;;;48.07;19.27;;;5.00;99.90;;;;;;5012154;28;20228;-79
2022/01/26 09:13:57;;;;;;;59.23;20.43;;;5.00;99.90;;;;;;5012407;28;20207;-79
2022/01/26 09:16:25;;;;;;;56.77;21.13;;;5.10;99.90;;;;;;4996045;28;20206;-79
2022/01/26 09:18:55;;;;;;;51.70;20.40;;;5.10;99.90;;;;;;5013370;28;20223;-79
2022/01/26 09:21:21;;;;;;;54.70;20.00;;;5.10;99.90;;;;;;4997278;28;20203;-79
2022/01/26 09:23:48;;;;;;;55.17;19.97;;;5.20;99.90;;;;;;4995242;28;20191;-77
2022/01/26 09:26:15;;;;;;;51.43;20.00;;;5.20;99.90;;;;;;4993139;28;20215;-77
2022/01/26 09:28:41;;;;;;;49.30;21.50;;;5.20;99.90;;;;;;5006875;28;20234;-79
2022/01/26 09:31:07;;;;;;;48.77;21.17;;;5.20;99.90;;;;;;4991046;28;20298;-78
2022/01/26 09:33:33;;;;;;;48.63;20.30;;;5.20;99.90;;;;;;5008332;28;20192;-79
2022/01/26 09:35:58;;;;;;;54.00;20.30;;;5.20;99.90;;;;;;4991911;28;20195;-77
2022/01/26 09:38:24;;;;;;;47.43;18.63;;;5.30;99.90;;;;;;5005785;28;20305;-79
2022/01/26 09:40:51;;;;;;;50.27;20.60;;;5.30;99.90;;;;;;5008702;28;20196;-79
2022/01/26 09:43:17;;;;;;;57.90;21.80;;;5.30;99.90;;;;;;4995487;28;20216;-79
2022/01/26 09:45:45;;;;;;;46.17;18.73;;;5.30;99.90;;;;;;4988674;28;20535;-79
2022/01/26 09:48:12;;;;;;;52.73;20.60;;;5.40;99.90;;;;;;5006941;28;20199;-77
2022/01/26 09:50:42;;;;;;;46.83;19.23;;;5.40;99.90;;;;;;5003839;28;20348;-80
2022/01/26 09:53:10;;;;;;;49.40;19.70;;;5.50;99.90;;;;;;5005176;28;20195;-79
2022/01/26 09:55:41;;;;;;;48.23;19.40;;;5.40;99.90;;;;;;5006704;28;20484;-79
2022/01/26 09:58:07;;;;;;;43.13;19.37;;;5.50;99.90;;;;;;5003507;28;20213;-79
2022/01/26 10:00:33;;;;;;;46.03;19.60;;;5.50;99.90;;;;;;4973026;28;20200;-80
2022/01/26 10:03:01;;;;;;;47.47;20.37;;;5.50;99.90;;;;;;4988950;28;20199;-80
2022/01/26 10:05:38;;;;;;;37.83;17.20;;;5.60;99.90;;;;;;5015019;28;20303;-78
2022/01/26 10:08:22;;;;;;;37.80;18.27;;;5.60;99.90;;;;;;5003695;28;20585;-79
2022/01/26 10:19:25;;;;;;;36.87;17.23;;;5.80;99.90;;;;;;4948208;28;20193;-77
2022/01/26 10:21:52;;;;;;;30.17;15.93;;;5.80;99.90;;;;;;4957351;28;20215;-79
2022/01/26 10:24:24;;;;;;;38.77;17.60;;;5.90;99.90;;;;;;5005968;28;20195;-79
2022/01/26 10:26:56;;;;;;;36.57;16.77;;;5.90;99.90;;;;;;5021794;28;20191;-80
2022/01/26 10:29:23;;;;;;;34.13;15.77;;;5.90;99.90;;;;;;4992519;28;20666;-78
2022/01/26 10:31:49;;;;;;;32.57;15.43;;;5.90;99.90;;;;;;5002510;28;20199;-78
2022/01/26 10:34:23;;;;;;;34.93;16.33;;;5.90;99.90;;;;;;5007716;28;20199;-78
2022/01/26 10:36:53;;;;;;;44.23;17.13;;;5.90;99.90;;;;;;5006467;28;20227;-80
2022/01/26 10:39:27;;;;;;;35.67;15.60;;;5.90;99.90;;;;;;5005383;28;20199;-78
2022/01/26 10:41:56;;;;;;;38.47;15.80;;;6.00;99.90;;;;;;5007021;28;20280;-79
2022/01/26 10:44:40;;;;;;;31.80;15.57;;;6.00;99.90;;;;;;5002706;28;20202;-78
2022/01/26 10:47:08;;;;;;;33.80;15.43;;;6.00;99.90;;;;;;4998886;28;20194;-78
2022/01/26 10:52:39;;;;;;;33.60;15.40;;;6.10;99.90;;;;;;5003893;28;20183;-78
2022/01/26 10:55:09;;;;;;;29.53;13.97;;;6.20;99.90;;;;;;5005537;28;20195;-79
2022/01/26 10:57:35;;;;;;;29.17;13.90;;;6.20;99.90;;;;;;4996697;28;20211;-79
2022/01/26 11:00:03;;;;;;;29.10;13.97;;;6.30;99.90;;;;;;4982806;28;20491;-79
2022/01/26 11:02:33;;;;;;;30.47;13.70;;;6.30;99.90;;;;;;5003272;28;20195;-79
2022/01/26 11:04:59;;;;;;;27.33;13.43;;;6.30;99.90;;;;;;5005029;28;20250;-80
2022/01/26 11:07:40;;;;;;;26.50;11.87;;;6.30;99.90;;;;;;5002709;28;20227;-79
2022/01/26 11:10:09;;;;;;;32.63;13.37;;;6.40;99.90;;;;;;5004621;28;20183;-78
2022/01/26 11:12:40;;;;;;;23.60;12.73;;;6.40;99.90;;;;;;5004883;28;20295;-79
2022/01/26 11:15:08;;;;;;;29.47;12.97;;;6.50;99.90;;;;;;5004246;28;20191;-79
2022/01/26 11:17:37;;;;;;;29.30;13.30;;;6.50;99.90;;;;;;4998176;28;20274;-78
2022/01/26 11:20:28;;;;;;;28.90;12.73;;;6.60;99.90;;;;;;5002749;28;20199;-79
2022/01/26 11:23:00;;;;;;;30.27;13.67;;;6.60;99.90;;;;;;5004923;28;20184;-79
2022/01/26 11:25:44;;;;;;;29.27;13.90;;;6.60;99.90;;;;;;5007324;28;20218;-79
2022/01/26 11:28:25;;;;;;;31.13;13.03;;;6.60;99.90;;;;;;4999879;28;20242;-80
2022/01/26 11:30:52;;;;;;;24.33;12.20;;;6.60;99.90;;;;;;5004627;28;20215;-79
2022/01/26 11:33:21;;;;;;;32.50;12.93;;;6.60;99.90;;;;;;4985070;28;20270;-78
2022/01/26 11:35:50;;;;;;;26.53;12.77;;;6.60;99.90;;;;;;5005685;28;20195;-79
2022/01/26 11:46:54;;;;;;;22.37;11.13;;;6.70;99.90;;;;;;5008591;28;20187;-80
2022/01/26 11:49:43;;;;;;;24.20;11.10;;;6.70;99.90;;;;;;4988220;28;20266;-80
2022/01/26 11:52:20;;;;;;;23.03;10.63;;;6.70;99.90;;;;;;4999137;28;20233;-80
2022/01/26 11:54:53;;;;;;;24.17;11.33;;;6.70;99.90;;;;;;4999305;28;20194;-78
2022/01/26 11:57:35;;;;;;;25.27;12.27;;;6.70;99.90;;;;;;5005293;28;20562;-78
2022/01/26 12:00:11;;;;;;;27.53;12.90;;;6.80;99.90;;;;;;5004413;28;20244;-79
2022/01/26 12:02:51;;;;;;;32.07;12.97;;;6.80;99.90;;;;;;5002894;28;20197;-79
2022/01/26 12:05:22;;;;;;;28.40;13.80;;;6.90;99.90;;;;;;5005092;28;20196;-79
2022/01/26 12:07:51;;;;;;;31.40;14.17;;;6.90;99.90;;;;;;5001911;28;20176;-79
2022/01/26 12:10:29;;;;;;;29.67;13.63;;;6.90;99.90;;;;;;5003495;28;20219;-79
2022/01/26 12:13:03;;;;;;;31.13;14.33;;;7.00;99.90;;;;;;5003046;28;20329;-79
2022/01/26 12:15:42;;;;;;;25.87;13.50;;;7.00;99.90;;;;;;4994480;28;20199;-79
2022/01/26 12:32:27;;;;;;;29.47;13.80;;;7.10;99.90;;;;;;5009691;28;20250;-78
2022/01/26 12:35:08;;;;;;;26.73;12.00;;;7.10;99.90;;;;;;4991043;28;20215;-79
2022/01/26 12:37:49;;;;;;;29.03;12.70;;;7.00;99.90;;;;;;4994951;28;20729;-79
2022/01/26 12:43:07;;;;;;;34.60;12.37;;;7.00;99.90;;;;;;5006860;28;20242;-80
2022/01/26 12:45:33;;;;;;;28.03;13.23;;;7.00;99.90;;;;;;5006841;28;20211;-79
2022/01/26 12:47:59;;;;;;;28.80;13.07;;;7.00;99.90;;;;;;4991019;28;20191;-79
2022/01/26 12:50:26;;;;;;;30.10;13.73;;;7.00;99.90;;;;;;5001616;28;20239;-80
2022/01/26 12:52:55;;;;;;;30.77;14.67;;;7.10;99.90;;;;;;5007200;28;20206;-79
2022/01/26 12:55:23;;;;;;;31.57;14.33;;;7.10;99.90;;;;;;5009906;28;20191;-79
2022/01/26 12:57:49;;;;;;;29.07;14.00;;;7.10;99.90;;;;;;5006096;28;20219;-79
2022/01/26 13:00:16;;;;;;;30.83;14.30;;;7.20;99.90;;;;;;4992255;28;20195;-79
2022/01/26 13:02:42;;;;;;;32.20;14.20;;;7.20;99.90;;;;;;4986539;28;20558;-78
2022/01/26 13:05:08;;;;;;;34.33;14.00;;;7.20;99.90;;;;;;5006661;28;20227;-79
2022/01/26 13:07:34;;;;;;;32.03;14.23;;;7.20;99.90;;;;;;4991187;28;20258;-79
2022/01/26 13:10:00;;;;;;;29.60;14.03;;;7.20;99.90;;;;;;4992662;28;20192;-78
2022/01/26 13:12:32;;;;;;;32.17;14.03;;;7.30;99.90;;;;;;4991167;28;20257;-80
2022/01/26 13:15:07;;;;;;;31.53;14.40;;;7.20;99.90;;;;;;5002338;28;20215;-80
2022/01/26 13:17:40;;;;;;;31.20;14.03;;;7.30;99.90;;;;;;5007984;28;20206;-79
2022/01/26 13:20:35;;;;;;;31.77;13.73;;;7.30;99.90;;;;;;4988539;28;20658;-78
2022/01/26 13:31:10;;;;;;;27.43;13.33;;;7.30;99.90;;;;;;5006739;28;20199;-78
2022/01/26 13:36:49;;;;;;;26.33;13.60;;;7.30;99.90;;;;;;5007205;28;20203;-80
2022/01/26 13:41:48;;;;;;;34.73;13.50;;;7.30;99.90;;;;;;4992535;28;20223;-78
2022/01/26 13:57:46;;;;;;;34.03;14.33;;;7.30;99.90;;;;;;5009057;28;20265;-79
2022/01/26 14:00:15;;;;;;;32.17;13.37;;;7.20;99.90;;;;;;4993929;28;20677;-79
2022/01/26 14:02:41;;;;;;;32.37;13.60;;;7.20;99.90;;;;;;5008885;28;20181;-79
2022/01/26 14:05:09;;;;;;;26.43;12.70;;;7.20;99.90;;;;;;4991200;28;20313;-78
2022/01/26 14:07:35;;;;;;;33.10;13.40;;;7.20;99.90;;;;;;5006299;28;20183;-79
2022/01/26 14:10:01;;;;;;;27.63;13.67;;;7.20;99.90;;;;;;4975251;28;20732;-79
2022/01/26 14:12:32;;;;;;;28.13;13.73;;;7.20;99.90;;;;;;4987250;28;20258;-79
2022/01/26 14:14:59;;;;;;;29.47;14.17;;;7.20;99.90;;;;;;5005140;28;20192;-80
2022/01/26 14:17:38;;;;;;;33.20;14.40;;;7.20;99.90;;;;;;5008394;28;20702;-78
2022/01/26 14:20:14;;;;;;;30.80;14.07;;;7.10;99.90;;;;;;4991894;28;20198;-79
2022/01/26 14:25:17;;;;;;;37.60;17.73;;;7.20;99.90;;;;;;5008307;28;20638;-78
2022/01/26 14:27:48;;;;;;;38.80;18.77;;;7.10;99.90;;;;;;5006780;28;20297;-78
2022/01/26 14:33:05;;;;;;;44.63;21.23;;;6.90;99.90;;;;;;5005434;28;20275;-80
2022/01/26 15:42:21;;;;;;;63.23;25.57;;;6.40;99.90;;;;;;5001751;28;20305;-79
2022/01/26 15:50:12;;;;;;;53.47;25.07;;;6.30;99.90;;;;;;5005986;28;20237;-78
2022/01/26 15:58:13;;;;;;;55.90;26.17;;;6.50;99.90;;;;;;5007412;28;20226;-79
2022/01/26 16:06:22;;;;;;;62.70;27.37;;;6.50;99.90;;;;;;5007390;28;21043;-79
2022/01/26 16:38:44;;;;;;;59.37;27.10;;;6.10;99.90;;;;;;4997729;28;20274;-80
2022/01/26 16:52:32;;;;;;;63.63;28.13;;;6.10;99.90;;;;;;5012267;28;20230;-79
2022/01/26 17:43:28;;;;;;;53.97;27.63;;;6.10;99.90;;;;;;5008041;28;20663;-79
2022/01/26 18:13:32;;;;;;;50.53;24.93;;;5.90;99.90;;;;;;4993410;28;20337;-80
2022/01/26 18:16:09;;;;;;;59.00;26.80;;;6.00;99.90;;;;;;5007851;28;20191;-79
2022/01/26 18:50:35;;;;;;;57.77;28.70;;;5.90;99.90;;;;;;5005365;28;20329;-80
2022/01/26 18:53:00;;;;;;;57.77;28.00;;;5.90;99.90;;;;;;4989654;28;20243;-80
2022/01/26 18:55:26;;;;;;;61.37;27.13;;;5.90;99.90;;;;;;5006215;28;20194;-79
2022/01/26 18:57:52;;;;;;;59.43;28.40;;;5.90;99.90;;;;;;4982393;28;20218;-79
2022/01/26 19:00:17;;;;;;;62.43;29.27;;;5.90;99.90;;;;;;5005367;28;20215;-78
2022/01/26 19:02:43;;;;;;;53.13;26.33;;;5.90;99.90;;;;;;4989837;28;20703;-80
2022/01/26 19:05:11;;;;;;;56.80;26.63;;;5.90;99.90;;;;;;5003854;28;20801;-79
2022/01/26 19:07:37;;;;;;;54.83;28.60;;;5.90;99.90;;;;;;4989884;28;20573;-78
2022/01/26 19:10:04;;;;;;;59.13;27.37;;;5.90;99.90;;;;;;4998833;28;20186;-79
2022/01/26 19:12:33;;;;;;;53.30;26.93;;;5.90;99.90;;;;;;5002375;28;20346;-80
2022/01/26 19:15:03;;;;;;;52.33;26.43;;;5.90;99.90;;;;;;4988387;28;21103;-79
2022/01/26 19:17:38;;;;;;;53.93;26.20;;;5.90;99.90;;;;;;5013052;28;20199;-82
2022/01/26 19:25:17;;;;;;;59.10;27.10;;;5.90;99.90;;;;;;5008314;28;20225;-78
2022/01/26 19:33:20;;;;;;;58.13;26.77;;;5.90;99.90;;;;;;4996409;28;20211;-80
2022/01/26 19:52:09;;;;;;;45.97;23.03;;;6.00;99.90;;;;;;5012094;28;20237;-80
2022/01/26 19:54:38;;;;;;;46.03;21.77;;;6.00;99.90;;;;;;5008331;28;20226;-80
2022/01/26 19:57:08;;;;;;;43.90;21.63;;;6.00;99.90;;;;;;5009120;28;20215;-80